»·PEaware :: N356DA KCMA-KSNA

N356DA :: KCMA-KSNA

FLIGHT INFORMATION

Flight Status: Arrived
Operator: Privately registered:
United States
More flights under this callsign
Pilot: Alex B. (17696)
Aircraft: Diamond DA-40
(DA40)
More flights by this aircraft type
Origin: KCMA Camarillo
United States
Destination: KSNA John Wayne-Orange Co
United States
More flights between these airports :: More routes between these airports
Route: LAX
File this flight plan on PilotEdge
Remarks: Via Costal Transition
Altitude:
(Current/Filed)
5,500ft
Speed:
(Current/Filed)
135kts
Departed: 01-Dec-20 10:13 AM
Arrived: 01-Dec-20 10:53 AM
Distance/Time
Traveled:
69nm/0:40
Distance/Time
To Go:
Arrived

Flight Plot

Page will automatically refresh every two minutes.

Flight plan parsing failed; only flown route is shown


Map Options




Map Legend


Flown Route
Filed Route
Departure Airport
Arrival Airport
Navaid (VOR, NDB)
Fix

Horizontal Profiles

Position Reports

Time Latitude Longitude Heading Altitude Ground
Speed
01-Dec-20 09:59 34.210636 -119.090041 271 76ft 0kts
01-Dec-20 10:00 34.210636 -119.090041 271 76ft 0kts
01-Dec-20 10:01 34.210636 -119.090041 271 76ft 0kts
01-Dec-20 10:02 34.210636 -119.090041 271 76ft 0kts
01-Dec-20 10:03 34.210636 -119.090041 271 76ft 0kts
01-Dec-20 10:04 34.210636 -119.090041 271 76ft 0kts
01-Dec-20 10:05 34.210636 -119.090041 271 76ft 0kts
01-Dec-20 10:06 34.210636 -119.090041 271 76ft 0kts
01-Dec-20 10:07 34.210636 -119.090041 271 76ft 0kts
01-Dec-20 10:08 34.210947 -119.086430 90 78ft 24kts
01-Dec-20 10:09 34.212887 -119.084616 1 78ft 0kts
01-Dec-20 10:10 34.212887 -119.084616 1 78ft 0kts
01-Dec-20 10:11 34.212887 -119.084616 1 78ft 0kts
01-Dec-20 10:12 34.213701 -119.088140 269 74ft 61kts
01-Dec-20 10:13 34.211172 -119.112675 211 827ft 77kts
01-Dec-20 10:14 34.202335 -119.090641 89 1723ft 87kts
01-Dec-20 10:15 34.201265 -119.060334 95 2655ft 87kts
01-Dec-20 10:16 34.199905 -119.033217 90 3585ft 82kts
01-Dec-20 10:17 34.198778 -119.003783 92 4388ft 94kts
01-Dec-20 10:18 34.197137 -118.970536 95 5193ft 102kts
01-Dec-20 10:19 34.193231 -118.932961 97 5634ft 128kts
01-Dec-20 10:20 34.187820 -118.887169 97 5555ft 142kts
01-Dec-20 10:21 34.182099 -118.839529 97 5450ft 143kts
01-Dec-20 10:22 34.177156 -118.791643 93 5361ft 143kts
01-Dec-20 10:23 34.174582 -118.743847 92 5360ft 139kts
01-Dec-20 10:24 34.172164 -118.697489 92 5463ft 138kts
01-Dec-20 10:25 34.169817 -118.651141 92 5545ft 138kts
01-Dec-20 10:26 34.167541 -118.605920 91 5500ft 142kts
01-Dec-20 10:27 34.164097 -118.559531 100 5467ft 141kts
01-Dec-20 10:28 34.139154 -118.527519 166 5502ft 131kts
01-Dec-20 10:29 34.108218 -118.517917 152 5507ft 114kts
01-Dec-20 10:30 34.073909 -118.500396 158 5520ft 144kts
01-Dec-20 10:31 34.036484 -118.482098 157 5519ft 145kts
01-Dec-20 10:32 33.998903 -118.463807 157 5519ft 145kts
01-Dec-20 10:33 33.961359 -118.445592 157 5519ft 145kts
01-Dec-20 10:34 33.923885 -118.427289 156 5518ft 145kts
01-Dec-20 10:35 33.898089 -118.392522 124 5521ft 143kts
01-Dec-20 10:36 33.868166 -118.361176 140 5523ft 145kts
01-Dec-20 10:37 33.837899 -118.328554 136 5526ft 144kts
01-Dec-20 10:38 33.807906 -118.296535 135 5526ft 144kts
01-Dec-20 10:39 33.777960 -118.264250 135 5526ft 144kts
01-Dec-20 10:40 33.748036 -118.231927 135 5526ft 144kts
01-Dec-20 10:41 33.718054 -118.199624 136 5525ft 144kts
01-Dec-20 10:42 33.688128 -118.167401 136 5525ft 144kts
01-Dec-20 10:43 33.661375 -118.131995 113 5525ft 143kts
01-Dec-20 10:44 33.651375 -118.085862 100 5525ft 142kts
01-Dec-20 10:45 33.657831 -118.042876 78 3687ft 126kts
01-Dec-20 10:46 33.663477 -118.000472 59 1848ft 116kts
01-Dec-20 10:47 33.672129 -117.965407 87 1804ft 110kts
01-Dec-20 10:48 33.674424 -117.926408 84 1743ft 121kts
01-Dec-20 10:49 33.678801 -117.888406 48 1024ft 108kts
01-Dec-20 10:50 33.698515 -117.867467 77 856ft 83kts
01-Dec-20 10:51 33.681241 -117.865373 208 49ft 72kts
01-Dec-20 10:52 33.675989 -117.869829 292 55ft 0kts
01-Dec-20 10:53 33.676082 -117.869924 330 55ft 0kts
01-Dec-20 10:54 33.677183 -117.869543 356 52ft 0kts
01-Dec-20 10:55 33.677813 -117.869698 20 50ft 0kts
01-Dec-20 10:57 33.677813 -117.869698 20 50ft 0kts

Navigation Log

Ident Type
Flight plan parsing failed, navigation log unavailable